Latest Weather Observations for Cobar

IDN60801

Issued at 5:22 am EDT Monday 19 November 2018 (issued every 10 minutes, with the page automatically refreshed every 10 minutes)

About weather observations | Map of weather stations | Latest weather observations for NSW | Other Formats
Station Details ID: 048027 Name: COBAR MO Lat: -31.48 Lon: 145.83 Height: 260.0 m
Data from the previous 72 hours. | See also: Recent months at Cobar
Date/Time
EDT
Temp
°C
App
Temp
°C
Dew
Point
°C
Rel
Hum
%
Delta-T
°C
Wind Press
QNH
hPa
Press
MSL
hPa
Rain since
9am
mm
Dir  Spd
km/h
Gust
km/h
Spd
kts
Gust
kts
19/05:17am 19.5 13.6 9.1 51 5.5 E 30 50 16 27 1014.5 1013.4 0.0
19/05:00am 19.5 13.8 8.5 49 5.8 E 28 43 15 23 1014.5 1013.4 0.0
19/04:37am 19.9 14.3 8.6 48 6.0 E 28 46 15 25 1014.4 1013.3 0.0
19/04:30am 20.1 14.1 8.8 48 6.0 E 30 43 16 23 1014.3 1013.1 0.0
19/04:00am 20.5 15.6 8.5 46 6.4 E 24 33 13 18 1014.4 1013.3 0.0
19/03:30am 21.2 15.6 8.8 45 6.6 E 28 41 15 22 1014.5 1013.4 0.0
19/03:00am 21.6 16.6 8.1 42 7.1 E 24 39 13 21 1014.5 1013.4 0.0
19/02:30am 22.2 16.8 8.0 40 7.5 E 26 39 14 21 1014.6 1013.5 0.0
19/02:00am 23.0 17.5 7.5 37 8.2 E 26 41 14 22 1015.0 1013.9 0.0
19/01:51am 23.4 17.5 7.5 36 8.4 E 28 48 15 26 1015.1 1014.0 0.0
19/01:30am 23.8 18.3 7.4 35 8.7 E 26 39 14 21 1015.0 1013.9 0.0
19/01:00am 24.5 18.5 7.2 33 9.2 E 28 43 15 23 1015.1 1014.0 0.0
19/12:30am 24.7 19.8 6.9 32 9.4 E 22 30 12 16 1015.1 1014.0 0.0
19/12:00am 24.3 20.5 7.4 34 9.0 E 17 24 9 13 1015.0 1013.9 0.0
 
Date/Time
EDT
Temp
°C
App
Temp
°C
Dew
Point
°C
Rel
Hum
%
Delta-T
°C
Wind Press
QNH
hPa
Press
MSL
hPa
Rain since
9am
mm
Dir  Spd
km/h
Gust
km/h
Spd
kts
Gust
kts
18/11:30pm 23.8 20.7 7.4 35 8.7 ESE 13 15 7 8 1014.9 1013.8 0.0
18/11:00pm 24.3 21.1 7.0 33 9.1 ESE 13 17 7 9 1014.9 1013.8 0.0
18/10:30pm 24.4 21.6 7.1 33 9.1 ESE 11 13 6 7 1014.7 1013.6 0.0
18/10:00pm 24.5 22.0 6.7 32 9.3 ESE 9 11 5 6 1014.4 1013.3 0.0
18/09:30pm 25.3 22.8 6.5 30 9.9 SE 9 11 5 6 1014.0 1012.8 0.0
18/09:00pm 26.2 23.6 6.3 28 10.5 SE 9 11 5 6 1013.8 1012.6 0.0
18/08:30pm 27.2 24.1 5.5 25 11.3 SE 11 17 6 9 1013.7 1012.5 0.0
18/08:00pm 28.1 24.9 5.0 23 12.0 SE 11 17 6 9 1013.6 1012.4 0.0
18/07:30pm 28.9 25.3 5.1 22 12.5 SE 13 17 7 9 1013.4 1012.2 0.0
18/07:00pm 29.7 26.5 5.1 21 13.0 ESE 11 19 6 10 1013.1 1011.9 0.0
18/06:30pm 30.2 25.8 4.8 20 13.3 ESE 17 20 9 11 1012.9 1011.7 0.0
18/06:00pm 31.0 26.6 4.7 19 13.9 ENE 17 24 9 13 1013.0 1011.8 0.0
18/05:30pm 30.3 27.7 4.1 19 13.6 SSW 7 11 4 6 1013.1 1011.9 0.0
18/05:00pm 28.9 25.8 3.7 20 12.9 SE 9 15 5 8 1013.4 1012.2 0.0
18/04:30pm 29.3 25.1 4.0 20 13.0 E 15 24 8 13 1013.6 1012.4 0.0
18/04:00pm 29.3 26.0 2.5 18 13.5 ESE 9 17 5 9 1013.8 1012.6 0.0
18/03:30pm 29.7 27.1 4.4 20 13.2 E 7 15 4 8 1014.2 1013.0 0.0
18/03:00pm 30.0 27.2 5.3 21 13.1 SE 9 15 5 8 1014.7 1013.6 0.0
18/02:30pm 29.9 26.3 3.0 18 13.7 NE 11 24 6 13 1015.2 1014.1 0.0
18/02:00pm 28.3 26.1 6.4 25 11.7 SE 7 17 4 9 1015.7 1014.6 0.0
18/01:30pm 28.7 26.1 9.4 30 10.9 E 13 22 7 12 1016.1 1015.0 0.0
18/01:00pm 27.9 25.4 9.7 32 10.2 ENE 13 20 7 11 1016.8 1015.6 0.0
18/12:30pm 27.1 23.4 9.5 33 9.8 NE 19 26 10 14 1017.2 1016.0 0.0
18/12:00pm 26.9 22.4 10.2 35 9.4 NE 24 35 13 19 1017.4 1016.2 0.0
18/11:30am 26.3 21.6 10.5 37 8.9 ENE 26 33 14 18 1017.7 1016.6 0.0
18/11:00am 26.3 21.7 11.2 38 8.6 ENE 26 35 14 19 1017.9 1016.8 0.0
18/10:30am 24.9 20.6 10.8 41 8.0 ENE 24 33 13 18 1017.9 1016.8 0.0
18/10:00am 23.6 17.5 10.6 44 7.3 ENE 33 44 18 24 1018.0 1016.9 0.0
18/09:30am 23.0 17.8 10.4 45 7.0 ENE 28 41 15 22 1018.0 1016.9 0.0
18/09:00am 22.0 16.0 10.2 47 6.5 E 32 43 17 23 1017.8 1016.7 0.0
18/08:30am 20.7 14.6 9.9 50 5.9 E 32 48 17 26 1017.7 1016.6 0.0
18/08:22am 20.4 14.6 9.6 50 5.8 E 30 48 16 26 1017.7 1016.6 0.0
18/08:00am 19.8 14.5 9.7 52 5.4 E 28 43 15 23 1017.4 1016.2 0.0
18/07:30am 19.4 14.9 9.9 54 5.1 E 24 33 13 18 1017.3 1016.1 0.0
18/07:00am 18.6 14.0 9.7 56 4.8 E 24 35 13 19 1017.1 1015.9 0.0
18/06:30am 18.1 13.5 9.7 58 4.5 E 24 35 13 19 1016.7 1015.5 0.0
18/06:00am 18.1 13.1 9.7 58 4.5 E 26 39 14 21 1016.5 1015.3 0.0
18/05:30am 18.6 13.3 9.7 56 4.8 E 28 41 15 22 1016.1 1015.0 0.0
18/05:00am 18.9 13.9 9.7 55 4.9 E 26 37 14 20 1015.9 1014.8 0.0
18/04:30am 19.3 14.6 9.2 52 5.4 E 24 35 13 19 1015.7 1014.6 0.0
18/04:00am 19.8 14.8 7.9 46 6.2 E 24 32 13 17 1015.6 1014.5 0.0
18/03:30am 19.5 14.5 4.8 38 7.2 E 20 30 11 16 1015.7 1014.6 0.0
18/03:00am 19.6 13.8 2.5 32 8.0 ESE 22 32 12 17 1015.5 1014.4 0.0
18/02:30am 20.1 14.7 -1.1 24 9.3 SE 17 22 9 12 1015.6 1014.5 0.0
18/02:00am 18.7 14.9 -0.7 27 8.5 S 9 11 5 6 1015.7 1014.6 0.0
18/01:30am 19.2 15.5 -0.2 27 8.6 S 9 11 5 6 1015.8 1014.7 0.0
18/01:00am 19.9 16.2 -0.1 26 8.9 S 9 13 5 7 1016.0 1014.9 0.0
18/12:30am 20.5 16.8 -0.2 25 9.3 S 9 11 5 6 1016.1 1015.0 0.0
18/12:00am 21.1 17.3 -0.8 23 9.7 S 9 13 5 7 1016.2 1015.1 0.0
 
Date/Time
EDT
Temp
°C
App
Temp
°C
Dew
Point
°C
Rel
Hum
%
Delta-T
°C
Wind Press
QNH
hPa
Press
MSL
hPa
Rain since
9am
mm
Dir  Spd
km/h
Gust
km/h
Spd
kts
Gust
kts
17/11:30pm 21.8 17.6 -0.8 22 10.1 S 11 15 6 8 1016.2 1015.1 0.0
17/11:00pm 22.0 17.7 -2.0 20 10.5 S 11 13 6 7 1016.2 1015.1 0.0
17/10:30pm 22.9 18.9 -1.9 19 11.0 S 9 13 5 7 1016.1 1015.0 0.0
17/10:00pm 23.3 18.8 -3.1 17 11.4 S 11 15 6 8 1015.8 1014.7 0.0
17/09:30pm 24.3 20.2 -3.1 16 12.0 S 9 11 5 6 1015.6 1014.5 0.0
17/09:00pm 25.5 20.9 -3.9 14 12.8 S 11 17 6 9 1015.4 1014.3 0.0
17/08:30pm 26.4 22.2 -4.2 13 13.4 SSE 9 17 5 9 1015.3 1014.2 0.0
17/08:00pm 27.1 22.4 -4.7 12 13.8 SSE 11 17 6 9 1014.9 1013.8 0.0
17/07:30pm 28.0 22.9 -5.2 11 14.4 SSE 13 19 7 10 1014.7 1013.6 0.0
17/07:00pm 29.0 23.6 -4.4 11 14.8 S 15 24 8 13 1014.5 1013.4 0.0
17/06:30pm 29.2 24.7 -6.9 9 15.4 SE 9 17 5 9 1014.3 1013.1 0.0
17/06:00pm 29.8 24.2 -6.4 9 15.6 S 15 26 8 14 1014.3 1013.1 0.0
17/05:30pm 29.7 24.1 -6.5 9 15.6 SW 15 26 8 14 1014.2 1013.0 0.0
17/05:00pm 30.1 23.8 -6.2 9 15.8 SSW 19 30 10 16 1014.2 1013.0 0.0
17/04:30pm 30.0 23.5 -6.3 9 15.7 SSW 20 32 11 17 1014.5 1013.4 0.0
17/04:00pm 30.0 24.8 -6.3 9 15.7 SSE 13 20 7 11 1014.8 1013.7 0.0
17/03:30pm 29.0 23.0 -7.0 9 15.3 SSE 17 26 9 14 1015.1 1014.0 0.0
17/03:00pm 30.2 24.6 -6.1 9 15.8 SSW 15 22 8 12 1015.5 1014.4 0.0
17/02:30pm 29.8 23.8 -6.4 9 15.6 S 17 35 9 19 1015.6 1014.5 0.0
17/02:00pm 29.6 23.7 -5.2 10 15.3 S 17 32 9 17 1015.9 1014.8 0.0
17/01:30pm 28.3 23.0 -7.6 9 15.0 SSE 13 26 7 14 1016.4 1015.2 0.0
17/01:00pm 28.3 22.2 -7.6 9 15.0 S 17 30 9 16 1016.7 1015.5 0.0
17/12:30pm 27.7 21.7 -6.6 10 14.5 S 17 30 9 16 1017.2 1016.0 0.0
17/12:00pm 27.5 21.7 -8.2 9 14.6 SSE 15 24 8 13 1017.7 1016.6 0.0
17/11:30am 26.9 20.3 -8.6 9 14.4 S 19 32 10 17 1017.9 1016.8 0.0
17/11:00am 26.8 20.4 -7.3 10 14.1 SSE 19 30 10 16 1018.0 1016.9 0.0
17/10:30am 26.3 20.2 -7.7 10 13.9 SSE 17 24 9 13 1018.1 1017.0 0.0
17/10:00am 25.9 20.0 -5.6 12 13.3 ESE 17 24 9 13 1018.1 1017.0 0.0
17/09:30am 25.2 18.8 -5.1 13 12.9 ESE 20 28 11 15 1018.2 1017.1 0.0
17/09:00am 24.1 17.9 -5.0 14 12.2 ESE 19 24 10 13 1017.9 1016.8 0.0
17/08:30am 23.6 18.2 -4.5 15 11.9 SE 15 26 8 14 1017.6 1016.4 0.0
17/08:00am 21.3 17.3 -2.5 20 10.2 SE 9 15 5 8 1017.5 1016.3 0.0
17/07:30am 19.3 15.3 -2.3 23 9.2 ESE 9 11 5 6 1017.2 1016.0 0.0
17/07:00am 18.6 14.0 -4.1 21 9.2 SE 11 15 6 8 1016.8 1015.6 0.0
17/06:30am 16.6 12.5 -3.0 26 8.0 SSE 9 11 5 6 1016.6 1015.4 0.0
17/06:00am 16.6 12.4 -3.5 25 8.1 SSE 9 13 5 7 1016.2 1015.1 0.0
17/05:30am 16.8 12.6 -3.9 24 8.3 SSE 9 13 5 7 1015.9 1014.8 0.0
17/05:00am 17.8 12.8 -4.2 22 8.9 SSE 13 17 7 9 1015.8 1014.7 0.0
17/04:30am 17.4 13.0 -2.8 25 8.3 S 11 13 6 7 1015.8 1014.7 0.0
17/04:00am 16.9 12.8 -2.7 26 8.1 S 9 13 5 7 1015.6 1014.5 0.0
17/03:30am 16.4 12.4 -2.1 28 7.7 S 9 11 5 6 1015.6 1014.5 0.0
17/03:00am 16.5 12.9 -2.0 28 7.7 S 7 9 4 5 1015.8 1014.7 0.0
17/02:30am 16.9 13.3 -2.2 27 8.0 SSW 7 9 4 5 1016.1 1015.0 0.0
17/02:00am 17.9 13.8 -2.9 24 8.6 S 9 13 5 7 1016.2 1015.1 0.0
17/01:30am 18.7 14.6 -2.8 23 9.0 S 9 11 5 6 1016.6 1015.4 0.0
17/01:00am 19.5 15.4 -3.4 21 9.5 SSW 9 11 5 6 1016.9 1015.7 0.0
17/12:30am 20.5 16.3 -3.9 19 10.2 SSW 9 15 5 8 1017.2 1016.0 0.0
17/12:00am 21.5 16.9 -4.5 17 10.8 SSW 11 15 6 8 1017.3 1016.1 0.0
 
Date/Time
EDT
Temp
°C
App
Temp
°C
Dew
Point
°C
Rel
Hum
%
Delta-T
°C
Wind Press
QNH
hPa
Press
MSL
hPa
Rain since
9am
mm
Dir  Spd
km/h
Gust
km/h
Spd
kts
Gust
kts
16/11:30pm 22.2 17.5 -4.8 16 11.2 SSW 11 17 6 9 1017.3 1016.1 0.0
16/11:00pm 22.6 18.0 -4.5 16 11.3 SSW 11 17 6 9 1017.4 1016.2 0.0
16/10:30pm 23.0 18.3 -5.0 15 11.7 SSW 11 15 6 8 1017.4 1016.2 0.0
16/10:00pm 23.5 18.5 -4.6 15 11.8 SSW 13 17 7 9 1017.2 1016.0 0.0
16/09:30pm 23.8 18.7 -5.3 14 12.2 SSW 13 17 7 9 1016.8 1015.6 0.0
16/09:00pm 24.2 19.6 -4.0 15 12.1 SW 11 13 6 7 1016.5 1015.3 0.0
16/08:30pm 25.3 20.6 -5.1 13 12.9 SSW 11 15 6 8 1016.1 1015.0 0.0
16/08:00pm 26.6 21.8 -6.2 11 13.8 SSW 11 19 6 10 1015.8 1014.7 0.0
16/07:30pm 28.1 22.1 -6.3 10 14.7 SSW 17 24 9 13 1015.4 1014.3 0.0
16/07:00pm 29.0 23.1 -5.7 10 15.1 SSW 17 28 9 15 1015.1 1014.0 0.0
16/06:30pm 29.6 24.3 -3.9 11 15.1 S 15 24 8 13 1014.8 1013.7 0.0
16/06:00pm 29.5 23.8 -4.0 11 15.0 S 17 28 9 15 1014.6 1013.5 0.0
16/05:30pm 29.3 23.4 -1.9 13 14.5 S 19 32 10 17 1014.6 1013.5 0.0
16/05:00pm 29.4 23.8 -2.9 12 14.8 S 17 26 9 14 1014.8 1013.7 0.0
16/04:30pm 30.1 24.7 -1.3 13 14.9 SW 17 26 9 14 1015.0 1013.9 0.0
16/04:00pm 30.2 25.0 -0.2 14 14.7 SSW 17 28 9 15 1015.1 1014.0 0.0
16/03:30pm 29.2 24.1 -2.0 13 14.5 SSW 15 22 8 12 1015.6 1014.5 0.0
16/03:00pm 30.0 25.0 -1.4 13 14.8 SW 15 24 8 13 1016.2 1015.1 0.0
16/02:30pm 29.2 24.4 -0.1 15 14.1 SSW 15 30 8 16 1016.6 1015.4 0.0
16/02:00pm 28.8 24.3 -0.4 15 13.9 SW 13 19 7 10 1017.1 1015.9 0.0
16/01:30pm 28.2 23.4 0.0 16 13.5 WSW 15 28 8 15 1017.5 1016.3 0.0
16/01:00pm 27.8 24.1 -0.3 16 13.3 WSW 9 19 5 10 1017.7 1016.6 0.0
16/12:30pm 27.7 23.8 1.2 18 12.9 WSW 11 22 6 12 1018.1 1017.0 0.0
16/12:00pm 27.5 23.7 1.8 19 12.6 SW 11 20 6 11 1018.4 1017.3 0.0
16/11:30am 26.6 22.4 1.8 20 12.1 SSW 13 24 7 13 1018.7 1017.6 0.0
16/11:00am 26.3 22.2 2.3 21 11.8 S 13 22 7 12 1018.8 1017.7 0.0
16/10:30am 25.1 21.1 3.1 24 10.9 S 13 28 7 15 1018.8 1017.7 0.0
16/10:00am 24.5 20.8 2.6 24 10.6 E 11 17 6 9 1018.8 1017.7 0.0
16/09:30am 24.0 20.1 3.3 26 10.2 E 13 19 7 10 1018.9 1017.8 0.0
16/09:00am 23.1 18.9 3.6 28 9.6 ESE 15 20 8 11 1018.9 1017.8 0.2
16/08:30am 22.3 18.3 4.8 32 8.8 ESE 15 20 8 11 1018.7 1017.6 0.2
16/08:00am 20.5 16.4 4.5 35 7.8 ESE 15 20 8 11 1018.5 1017.4 0.2
16/07:30am 19.4 15.3 4.4 37 7.3 ESE 15 20 8 11 1018.3 1017.2 0.2
16/07:00am 17.8 14.3 5.4 44 6.1 SE 13 17 7 9 1018.3 1017.2 0.2
16/06:30am 16.9 13.8 5.5 47 5.6 SSE 11 15 6 8 1018.2 1017.1 0.2
16/06:00am 16.7 13.9 5.3 47 5.5 SSE 9 11 5 6 1017.8 1016.7 0.2
16/05:30am 17.2 14.4 5.2 45 5.8 SE 9 13 5 7 1017.5 1016.3 0.2

Other Formats:

Comma delimited format used in spreadsheet applications
http://www.bom.gov.au/fwo/IDN60801/IDN60801.94711.axf

JavaScript Object Notation format (JSON) in row-major order
http://www.bom.gov.au/fwo/IDN60801/IDN60801.94711.json